Time;durP1;ratioP1;P1;durP2;ratioP2;P2;SDS_P1;SDS_P2;PMS_P1;PMS_P2;Temp;Humidity;BMP_temperature;BMP_pressure;BME280_temperature;BME280_humidity;BME280_pressure;Samples;Min_cycle;Max_cycle;Signal;HPM_P1;HPM_P2
2022/06/21 00:01:23;;;;;;;20.23;4.72;;;;;;;;;;4936520;28;20398;-75
2022/06/21 00:03:52;;;;;;;20.83;4.80;;;;;;;;;;4933333;28;20517;-76
2022/06/21 00:06:21;;;;;;;21.35;5.20;;;;;;;;;;4932388;28;20039;-75
2022/06/21 00:08:51;;;;;;;14.45;4.70;;;;;;;;;;4923495;28;20042;-74
2022/06/21 00:11:30;;;;;;;20.67;5.10;;;;;;;;;;4934492;28;20454;-74
2022/06/21 00:13:57;;;;;;;15.48;4.93;;;;;;;;;;4911719;28;20366;-75
2022/06/21 00:16:36;;;;;;;16.02;5.35;;;;;;;;;;4935951;28;20063;-74
2022/06/21 00:19:05;;;;;;;18.05;4.60;;;;;;;;;;4937012;28;20031;-75
2022/06/21 00:21:36;;;;;;;21.02;6.03;;;;;;;;;;4938438;28;20027;-74
2022/06/21 00:24:04;;;;;;;20.55;5.60;;;;;;;;;;4928541;28;20235;-74
2022/06/21 00:26:31;;;;;;;19.33;5.43;;;;;;;;;;4939235;28;20162;-74
2022/06/21 00:29:01;;;;;;;17.48;5.68;;;;;;;;;;4917842;28;20051;-74
2022/06/21 00:31:31;;;;;;;17.70;5.07;;;;;;;;;;4933172;28;20660;-74
2022/06/21 00:34:10;;;;;;;16.80;4.90;;;;;;;;;;4925951;28;20074;-74
2022/06/21 00:36:38;;;;;;;19.88;5.15;;;;;;;;;;4936792;28;20481;-73
2022/06/21 00:39:07;;;;;;;18.27;5.30;;;;;;;;;;4928289;28;20525;-72
2022/06/21 00:41:53;;;;;;;19.27;5.20;;;;;;;;;;4917675;28;20599;-73
2022/06/21 00:44:31;;;;;;;19.77;5.40;;;;;;;;;;4923737;28;20042;-72
2022/06/21 00:47:05;;;;;;;20.52;5.32;;;;;;;;;;4925295;28;20393;-73
2022/06/21 00:49:35;;;;;;;15.43;4.60;;;;;;;;;;4927901;28;20098;-73
2022/06/21 00:52:15;;;;;;;19.65;5.05;;;;;;;;;;4923521;28;20464;-73
2022/06/21 00:54:56;;;;;;;22.33;4.90;;;;;;;;;;4940179;28;20038;-72
2022/06/21 00:57:27;;;;;;;18.45;4.45;;;;;;;;;;4943258;28;20398;-72
2022/06/21 00:59:58;;;;;;;19.88;5.10;;;;;;;;;;4924777;28;20487;-73
2022/06/21 01:02:28;;;;;;;15.57;5.00;;;;;;;;;;4935563;28;20031;-73
2022/06/21 01:04:57;;;;;;;17.83;4.90;;;;;;;;;;4938650;28;20533;-73
2022/06/21 01:07:23;;;;;;;17.40;4.50;;;;;;;;;;4932802;28;20031;-73
2022/06/21 01:09:52;;;;;;;18.88;4.90;;;;;;;;;;4940478;28;20035;-73
2022/06/21 01:12:23;;;;;;;15.65;5.00;;;;;;;;;;4946626;28;20557;-74
2022/06/21 01:15:02;;;;;;;17.83;4.97;;;;;;;;;;4943421;28;20109;-74
2022/06/21 01:17:30;;;;;;;18.70;5.35;;;;;;;;;;4944022;28;20111;-74
2022/06/21 01:19:58;;;;;;;18.95;4.90;;;;;;;;;;4934751;28;20105;-74
2022/06/21 01:22:27;;;;;;;16.73;4.68;;;;;;;;;;4930255;28;20035;-74
2022/06/21 01:24:53;;;;;;;15.77;4.85;;;;;;;;;;4933645;28;20211;-73
2022/06/21 01:27:20;;;;;;;15.65;4.47;;;;;;;;;;4945897;28;20027;-74
2022/06/21 01:29:46;;;;;;;19.52;4.88;;;;;;;;;;4948561;28;20032;-74
2022/06/21 01:32:12;;;;;;;17.50;5.07;;;;;;;;;;4940926;28;20118;-76
2022/06/21 01:34:39;;;;;;;21.15;5.22;;;;;;;;;;4950589;28;20534;-73
2022/06/21 01:37:18;;;;;;;19.90;5.15;;;;;;;;;;4945925;28;20714;-73
2022/06/21 01:39:46;;;;;;;18.92;4.90;;;;;;;;;;4936242;28;20103;-73
2022/06/21 01:42:18;;;;;;;20.33;4.95;;;;;;;;;;4928630;28;20031;-73
2022/06/21 01:44:47;;;;;;;17.45;4.75;;;;;;;;;;4948750;28;20038;-73
2022/06/21 01:47:15;;;;;;;15.75;4.55;;;;;;;;;;4936680;28;20039;-73
2022/06/21 01:49:45;;;;;;;18.60;4.82;;;;;;;;;;4936085;28;20449;-74
2022/06/21 01:52:14;;;;;;;18.63;4.90;;;;;;;;;;4931962;28;20026;-73
2022/06/21 01:54:45;;;;;;;17.70;5.32;;;;;;;;;;4930692;28;20102;-73
2022/06/21 01:57:15;;;;;;;15.20;5.13;;;;;;;;;;4935385;28;20107;-73
2022/06/21 01:59:44;;;;;;;14.52;4.65;;;;;;;;;;4946381;28;20035;-73
2022/06/21 02:02:18;;;;;;;14.65;4.72;;;;;;;;;;4934324;28;20054;-73
2022/06/21 02:04:50;;;;;;;17.08;5.07;;;;;;;;;;4942394;28;20058;-73
2022/06/21 02:07:19;;;;;;;17.60;4.85;;;;;;;;;;4941303;28;20031;-73
2022/06/21 02:09:49;;;;;;;16.05;5.03;;;;;;;;;;4926676;28;20039;-73
2022/06/21 02:12:17;;;;;;;15.13;5.07;;;;;;;;;;4919240;28;20031;-73
2022/06/21 02:14:56;;;;;;;19.48;5.25;;;;;;;;;;4925544;28;20118;-73
2022/06/21 02:17:42;;;;;;;16.83;4.85;;;;;;;;;;4944308;28;20477;-73
2022/06/21 02:20:19;;;;;;;19.38;5.35;;;;;;;;;;4939192;28;20039;-73
2022/06/21 02:22:48;;;;;;;15.40;4.57;;;;;;;;;;4943252;28;20383;-73
2022/06/21 02:25:22;;;;;;;20.77;5.80;;;;;;;;;;4933960;28;20102;-73
2022/06/21 02:27:56;;;;;;;16.75;5.13;;;;;;;;;;4936066;28;20043;-73
2022/06/21 02:30:25;;;;;;;19.23;5.28;;;;;;;;;;4927349;28;20039;-73
2022/06/21 02:32:54;;;;;;;20.63;5.78;;;;;;;;;;4929498;28;20520;-74
2022/06/21 02:35:39;;;;;;;16.50;5.47;;;;;;;;;;4921997;28;20048;-74
2022/06/21 02:38:10;;;;;;;19.45;5.20;;;;;;;;;;4930927;28;20101;-74
2022/06/21 02:40:44;;;;;;;19.33;5.07;;;;;;;;;;4944477;28;20034;-73
2022/06/21 02:43:18;;;;;;;15.40;4.95;;;;;;;;;;4937427;28;20442;-73
2022/06/21 02:46:00;;;;;;;16.85;4.75;;;;;;;;;;4939101;28;20102;-74
2022/06/21 02:48:42;;;;;;;17.35;5.32;;;;;;;;;;4939115;28;20050;-74
2022/06/21 02:51:11;;;;;;;15.00;4.80;;;;;;;;;;4941898;28;20584;-74
2022/06/21 02:53:42;;;;;;;15.57;4.97;;;;;;;;;;4930994;28;20382;-74
2022/06/21 02:56:08;;;;;;;15.90;4.90;;;;;;;;;;4936929;28;20057;-74
2022/06/21 02:58:37;;;;;;;16.13;5.05;;;;;;;;;;4937636;28;20019;-74
2022/06/21 03:01:05;;;;;;;16.42;5.28;;;;;;;;;;4923910;28;20078;-73
2022/06/21 03:03:32;;;;;;;17.23;5.47;;;;;;;;;;4936667;28;20143;-74
2022/06/21 03:06:01;;;;;;;14.20;5.55;;;;;;;;;;4937530;28;20043;-74
2022/06/21 03:08:29;;;;;;;16.92;5.30;;;;;;;;;;4937939;28;20454;-73
2022/06/21 03:10:55;;;;;;;17.58;5.45;;;;;;;;;;4936172;28;20050;-74
2022/06/21 03:13:35;;;;;;;16.45;5.05;;;;;;;;;;4928789;28;20019;-73
2022/06/21 03:16:07;;;;;;;15.98;5.07;;;;;;;;;;4937013;28;20163;-73
2022/06/21 03:18:38;;;;;;;19.65;5.53;;;;;;;;;;4942491;28;20034;-73
2022/06/21 03:21:05;;;;;;;16.63;5.20;;;;;;;;;;4938228;28;20054;-74
2022/06/21 03:23:31;;;;;;;17.45;5.57;;;;;;;;;;4940368;28;20246;-73
2022/06/21 03:26:02;;;;;;;18.55;6.03;;;;;;;;;;4937490;28;20478;-74
2022/06/21 03:28:33;;;;;;;20.02;5.75;;;;;;;;;;4942597;28;20137;-74
2022/06/21 03:31:01;;;;;;;18.60;5.65;;;;;;;;;;4934370;28;20038;-73
2022/06/21 03:33:29;;;;;;;19.00;5.43;;;;;;;;;;4933146;28;20142;-74
2022/06/21 03:35:55;;;;;;;18.73;5.38;;;;;;;;;;4934671;28;20109;-74
2022/06/21 03:38:23;;;;;;;15.75;5.55;;;;;;;;;;4941122;28;20042;-74
2022/06/21 03:43:42;;;;;;;19.15;5.70;;;;;;;;;;4945376;28;20069;-74
2022/06/21 03:46:11;;;;;;;19.33;6.10;;;;;;;;;;4918701;28;20042;-74
2022/06/21 03:48:40;;;;;;;17.95;5.47;;;;;;;;;;4922641;28;20177;-74
2022/06/21 03:51:35;;;;;;;16.35;5.40;;;;;;;;;;4945771;28;20126;-74
2022/06/21 03:54:23;;;;;;;16.77;5.47;;;;;;;;;;4904820;29;20259;-74
2022/06/21 03:57:02;;;;;;;17.77;5.40;;;;;;;;;;4888977;29;20738;-74
2022/06/21 03:59:56;;;;;;;19.60;5.70;;;;;;;;;;4900269;29;20028;-74
2022/06/21 04:02:34;;;;;;;20.08;6.13;;;;;;;;;;4906130;29;20043;-74
2022/06/21 04:05:21;;;;;;;16.98;5.72;;;;;;;;;;4882080;29;20227;-74
2022/06/21 04:07:48;;;;;;;;;;;;;;;;;;4898917;29;20039;-74
2022/06/21 04:10:48;;;;;;;13.75;5.28;;;;;;;;;;4904084;29;19915;-74
2022/06/21 04:13:29;;;;;;;15.85;4.97;;;;;;;;;;4872047;29;20143;-74
2022/06/21 04:16:40;;;;;;;;;;;;;;;;;;;;;
2022/06/21 04:19:40;;;;;;;18.02;5.18;;;;;;;;;;4907510;29;20020;-77
2022/06/21 04:22:40;;;;;;;17.77;5.28;;;;;;;;;;4899550;29;20111;-78
2022/06/21 04:25:17;;;;;;;19.40;6.00;;;;;;;;;;4904969;29;20050;-78
2022/06/21 04:28:19;;;;;;;19.67;5.60;;;;;;;;;;4903744;29;20139;-78
2022/06/21 04:30:54;;;;;;;15.98;5.80;;;;;;;;;;4871096;29;20072;-78
2022/06/21 04:33:56;;;;;;;17.45;5.72;;;;;;;;;;4896045;29;20040;-74
2022/06/21 04:36:27;;;;;;;18.83;5.22;;;;;;;;;;4870244;29;20064;-78
2022/06/21 04:39:13;;;;;;;19.63;5.97;;;;;;;;;;4874358;29;20104;-74
2022/06/21 04:41:59;;;;;;;22.13;5.63;;;;;;;;;;4877750;29;20048;-77
2022/06/21 04:44:43;;;;;;;18.88;5.72;;;;;;;;;;4860261;29;20028;-77
2022/06/21 04:47:40;;;;;;;22.50;5.95;;;;;;;;;;4875720;29;20048;-74
2022/06/21 04:50:16;;;;;;;19.08;5.88;;;;;;;;;;4836137;29;22169;-74
2022/06/21 04:52:47;;;;;;;19.38;5.90;;;;;;;;;;4838773;29;20521;-75
2022/06/21 04:55:20;;;;;;;27.80;6.90;;;;;;;;;;4836620;29;20261;-74
2022/06/21 04:57:47;;;;;;;22.95;6.75;;;;;;;;;;4833286;29;20040;-74
2022/06/21 05:00:18;;;;;;;21.15;6.55;;;;;;;;;;4874261;29;20044;-74
2022/06/21 05:02:47;;;;;;;18.88;6.10;;;;;;;;;;4871895;29;20044;-73
2022/06/21 05:05:39;;;;;;;24.23;5.97;;;;;;;;;;4873874;29;20044;-77
2022/06/21 05:08:09;;;;;;;21.40;5.85;;;;;;;;;;4865636;29;20951;-78
2022/06/21 05:10:37;;;;;;;22.55;6.63;;;;;;;;;;4874033;29;20025;-77
2022/06/21 05:13:05;;;;;;;20.40;6.75;;;;;;;;;;4869202;29;20052;-77
2022/06/21 05:15:35;;;;;;;18.42;6.00;;;;;;;;;;4878265;29;20139;-75
2022/06/21 05:18:05;;;;;;;25.33;7.57;;;;;;;;;;4873999;29;20163;-75
2022/06/21 05:20:33;;;;;;;24.27;7.68;;;;;;;;;;4872749;29;20228;-73
2022/06/21 05:23:01;;;;;;;21.42;7.22;;;;;;;;;;4868768;29;20567;-75
2022/06/21 05:25:31;;;;;;;25.88;7.50;;;;;;;;;;4875782;29;20032;-74
2022/06/21 05:28:15;;;;;;;28.30;7.43;;;;;;;;;;4921760;28;20039;-74
2022/06/21 05:30:47;;;;;;;23.23;5.88;;;;;;;;;;4922849;28;20040;-76
2022/06/21 05:33:20;;;;;;;20.92;5.80;;;;;;;;;;4919775;28;20481;-73
2022/06/21 05:35:46;;;;;;;21.00;6.32;;;;;;;;;;4918596;28;20051;-74
2022/06/21 05:38:27;;;;;;;24.58;6.50;;;;;;;;;;4914404;28;20172;-76
2022/06/21 05:40:57;;;;;;;22.85;6.05;;;;;;;;;;4924504;28;20042;-75
2022/06/21 05:43:34;;;;;;;25.00;6.03;;;;;;;;;;4908440;28;20080;-73
2022/06/21 05:46:01;;;;;;;20.30;5.95;;;;;;;;;;4917044;28;20061;-73
2022/06/21 05:48:29;;;;;;;19.08;5.50;;;;;;;;;;4922723;28;20043;-73
2022/06/21 05:50:55;;;;;;;22.40;5.90;;;;;;;;;;4924601;28;20130;-74
2022/06/21 05:53:33;;;;;;;21.50;6.25;;;;;;;;;;4906218;28;20036;-75
2022/06/21 05:56:04;;;;;;;28.83;6.95;;;;;;;;;;4923770;28;20812;-76
2022/06/21 05:58:33;;;;;;;23.33;6.40;;;;;;;;;;4929454;28;20023;-74
2022/06/21 06:01:15;;;;;;;27.00;7.30;;;;;;;;;;4920592;28;20645;-75
2022/06/21 06:03:47;;;;;;;28.80;6.97;;;;;;;;;;4929654;28;20575;-74
2022/06/21 06:06:17;;;;;;;30.15;7.43;;;;;;;;;;4928503;28;20391;-74
2022/06/21 06:08:47;;;;;;;22.92;6.45;;;;;;;;;;4926475;28;20711;-74
2022/06/21 06:11:21;;;;;;;18.75;5.00;;;;;;;;;;4925775;28;20120;-72
2022/06/21 06:13:50;;;;;;;24.50;7.07;;;;;;;;;;4921385;28;20047;-74
2022/06/21 06:16:37;;;;;;;19.83;5.50;;;;;;;;;;4927973;28;20482;-73
2022/06/21 06:19:12;;;;;;;23.15;6.78;;;;;;;;;;4908258;29;20040;-69
2022/06/21 06:21:49;;;;;;;25.80;6.05;;;;;;;;;;4925738;28;20034;-70
2022/06/21 06:24:48;;;;;;;;;;;;;;;;;;;;;
2022/06/21 06:27:38;;;;;;;24.20;6.78;;;;;;;;;;4929494;28;20035;-70
2022/06/21 06:30:07;;;;;;;26.50;7.07;;;;;;;;;;4925200;28;20030;-70
2022/06/21 06:32:40;;;;;;;20.20;5.60;;;;;;;;;;4913859;28;20487;-68
2022/06/21 06:35:28;;;;;;;24.70;6.38;;;;;;;;;;4934912;28;23814;-69
2022/06/21 06:37:56;;;;;;;21.67;5.85;;;;;;;;;;4928187;28;20042;-69
2022/06/21 06:40:38;;;;;;;22.85;5.95;;;;;;;;;;4949942;28;20034;-70
2022/06/21 06:43:28;;;;;;;23.52;6.45;;;;;;;;;;4945463;28;21531;-69
2022/06/21 06:45:58;;;;;;;20.50;5.72;;;;;;;;;;4931013;28;20061;-69
2022/06/21 06:48:32;;;;;;;16.38;5.80;;;;;;;;;;4943918;28;20113;-69
2022/06/21 06:51:26;;;;;;;20.45;6.05;;;;;;;;;;4899773;28;20043;-69
2022/06/21 06:53:56;;;;;;;21.58;7.10;;;;;;;;;;4923971;28;20117;-69
2022/06/21 06:56:26;;;;;;;18.15;5.82;;;;;;;;;;4946699;28;20114;-68
2022/06/21 06:58:52;;;;;;;17.55;5.53;;;;;;;;;;4943018;28;20054;-69
2022/06/21 07:01:23;;;;;;;20.00;5.88;;;;;;;;;;4952167;28;20153;-69
2022/06/21 07:03:51;;;;;;;23.10;5.82;;;;;;;;;;4928139;28;20046;-70
2022/06/21 07:06:20;;;;;;;22.17;6.22;;;;;;;;;;4944273;28;20031;-71
2022/06/21 07:08:54;;;;;;;23.52;6.20;;;;;;;;;;4937354;28;20113;-70
2022/06/21 07:11:29;;;;;;;21.95;5.97;;;;;;;;;;4953186;28;20023;-69
2022/06/21 07:13:59;;;;;;;22.70;5.82;;;;;;;;;;4945552;28;20062;-70
2022/06/21 07:16:25;;;;;;;20.58;5.80;;;;;;;;;;4954422;28;20389;-70
2022/06/21 07:18:53;;;;;;;21.33;5.57;;;;;;;;;;4930064;28;20035;-69
2022/06/21 07:21:20;;;;;;;21.73;6.50;;;;;;;;;;4932769;28;20038;-70
2022/06/21 07:23:52;;;;;;;23.65;6.03;;;;;;;;;;4930273;28;20347;-70
2022/06/21 07:26:46;;;;;;;23.73;6.55;;;;;;;;;;4935256;28;20556;-70
2022/06/21 07:29:16;;;;;;;22.50;5.50;;;;;;;;;;4934896;28;20039;-70
2022/06/21 07:31:51;;;;;;;18.98;5.55;;;;;;;;;;4948998;28;20019;-69
2022/06/21 07:34:35;;;;;;;14.63;5.38;;;;;;;;;;4946346;28;20047;-70
2022/06/21 07:37:04;;;;;;;14.50;4.82;;;;;;;;;;4933198;28;20097;-68
2022/06/21 07:39:42;;;;;;;18.08;4.57;;;;;;;;;;4940952;28;20027;-70
2022/06/21 07:42:15;;;;;;;16.52;5.60;;;;;;;;;;4948229;28;20043;-70
2022/06/21 07:44:45;;;;;;;18.63;5.20;;;;;;;;;;4935581;28;20587;-69
2022/06/21 07:47:15;;;;;;;15.50;5.32;;;;;;;;;;4951533;28;20370;-70
2022/06/21 07:49:44;;;;;;;17.40;4.53;;;;;;;;;;4945658;28;20034;-69
2022/06/21 07:52:37;;;;;;;18.77;5.25;;;;;;;;;;4932475;28;20031;-69
2022/06/21 07:55:12;;;;;;;24.50;5.90;;;;;;;;;;4919165;28;20039;-69
2022/06/21 07:57:47;;;;;;;17.60;4.95;;;;;;;;;;4937248;28;20033;-71
2022/06/21 08:00:20;;;;;;;23.20;5.30;;;;;;;;;;4931936;28;20059;-71
2022/06/21 08:09:00;;;;;;;18.25;4.50;;;;;;;;;;4943478;28;20743;-69
2022/06/21 08:11:32;;;;;;;16.63;4.63;;;;;;;;;;4939315;28;20035;-69
2022/06/21 08:14:00;;;;;;;14.95;4.05;;;;;;;;;;4944763;28;20093;-69
2022/06/21 08:16:35;;;;;;;17.30;4.03;;;;;;;;;;4940796;28;20038;-69
2022/06/21 08:19:24;;;;;;;18.58;4.15;;;;;;;;;;4910966;28;20039;-69
2022/06/21 08:22:00;;;;;;;20.52;4.18;;;;;;;;;;4918843;28;20150;-69
2022/06/21 08:24:36;;;;;;;20.40;4.28;;;;;;;;;;4913843;28;20606;-69
2022/06/21 08:27:22;;;;;;;18.25;4.80;;;;;;;;;;4933238;28;20035;-70
2022/06/21 08:29:50;;;;;;;;;;;;;;;;;;4919855;28;20196;-70
2022/06/21 08:32:35;;;;;;;18.00;4.25;;;;;;;;;;4933949;28;19945;-69
2022/06/21 08:35:12;;;;;;;17.25;3.85;;;;;;;;;;4939518;28;20376;-70
2022/06/21 08:37:46;;;;;;;17.15;4.25;;;;;;;;;;4949038;28;20118;-70
2022/06/21 08:40:32;;;;;;;13.75;3.70;;;;;;;;;;4931337;28;20027;-70
2022/06/21 08:43:17;;;;;;;13.75;3.70;;;;;;;;;;4952389;28;20148;-69
2022/06/21 08:45:53;;;;;;;18.15;4.43;;;;;;;;;;4952490;28;20054;-74
2022/06/21 08:48:40;;;;;;;17.33;4.00;;;;;;;;;;4951649;28;20116;-75
2022/06/21 08:51:23;;;;;;;14.25;3.97;;;;;;;;;;4949666;28;20549;-71
2022/06/21 08:53:55;;;;;;;19.00;3.85;;;;;;;;;;4904469;29;20658;-69
2022/06/21 08:56:25;;;;;;;15.23;3.03;;;;;;;;;;4913130;29;20345;-70
2022/06/21 08:59:01;;;;;;;18.33;3.33;;;;;;;;;;4905167;29;20145;-70
2022/06/21 09:01:31;;;;;;;16.48;3.50;;;;;;;;;;4911492;29;20582;-70
2022/06/21 09:03:59;;;;;;;14.48;3.50;;;;;;;;;;4903373;29;20128;-69
2022/06/21 09:06:33;;;;;;;15.30;2.92;;;;;;;;;;4894060;29;20055;-71
2022/06/21 09:09:04;;;;;;;16.38;3.35;;;;;;;;;;4903847;29;20039;-69
2022/06/21 09:11:36;;;;;;;16.42;3.60;;;;;;;;;;4894542;29;20193;-70
2022/06/21 09:14:21;;;;;;;19.73;3.50;;;;;;;;;;4891627;29;20036;-69
2022/06/21 09:16:47;;;;;;;13.05;2.90;;;;;;;;;;4905914;29;20130;-70
2022/06/21 09:19:32;;;;;;;13.40;3.35;;;;;;;;;;4894602;29;20034;-70
2022/06/21 09:22:16;;;;;;;13.68;3.00;;;;;;;;;;4907670;28;20664;-70
2022/06/21 09:24:43;;;;;;;17.98;3.47;;;;;;;;;;4909191;29;20115;-70
2022/06/21 09:27:13;;;;;;;14.95;3.00;;;;;;;;;;4905628;29;20368;-70
2022/06/21 09:29:48;;;;;;;15.77;3.30;;;;;;;;;;4911540;29;20114;-70
2022/06/21 09:32:32;;;;;;;14.23;2.80;;;;;;;;;;4910668;29;20051;-70
2022/06/21 09:35:05;;;;;;;16.33;3.40;;;;;;;;;;4893381;29;20088;-70
2022/06/21 09:37:42;;;;;;;13.88;2.92;;;;;;;;;;4888621;29;20132;-70
2022/06/21 09:40:15;;;;;;;14.45;3.42;;;;;;;;;;4889058;29;22224;-70
2022/06/21 09:42:50;;;;;;;14.32;3.40;;;;;;;;;;4912496;29;20031;-69
2022/06/21 09:45:21;;;;;;;15.10;3.78;;;;;;;;;;4909970;29;20245;-70
2022/06/21 09:47:52;;;;;;;16.73;3.90;;;;;;;;;;4890667;29;20036;-69
2022/06/21 09:50:31;;;;;;;15.35;3.95;;;;;;;;;;4906719;28;20149;-71
2022/06/21 09:53:04;;;;;;;19.33;3.92;;;;;;;;;;4949203;28;20031;-70
2022/06/21 09:55:50;;;;;;;14.05;3.38;;;;;;;;;;4932049;28;20066;-70
2022/06/21 09:58:17;;;;;;;;;;;;;;;;;;4941053;28;20071;-69
2022/06/21 10:00:50;;;;;;;17.48;3.80;;;;;;;;;;4948231;28;19929;-69
2022/06/21 10:03:35;;;;;;;19.83;4.07;;;;;;;;;;4949774;28;20031;-70
2022/06/21 10:06:20;;;;;;;17.48;4.20;;;;;;;;;;4929737;28;20093;-70
2022/06/21 10:09:17;;;;;;;17.17;3.97;;;;;;;;;;4949988;28;20038;-70
2022/06/21 10:12:07;;;;;;;16.23;3.90;;;;;;;;;;4892253;29;20509;-69
2022/06/21 10:14:51;;;;;;;17.30;4.55;;;;;;;;;;4892761;29;20184;-70
2022/06/21 10:17:36;;;;;;;15.38;3.95;;;;;;;;;;4898679;29;20429;-70
2022/06/21 10:20:28;;;;;;;25.17;4.88;;;;;;;;;;4901186;29;20119;-70
2022/06/21 10:23:13;;;;;;;15.85;3.90;;;;;;;;;;4893332;29;20082;-70
2022/06/21 10:25:59;;;;;;;17.77;4.22;;;;;;;;;;4895276;29;20052;-71
2022/06/21 10:28:45;;;;;;;14.57;4.50;;;;;;;;;;4889787;29;20122;-69
2022/06/21 10:31:29;;;;;;;18.33;3.83;;;;;;;;;;4888219;29;20041;-71
2022/06/21 10:34:13;;;;;;;15.07;4.35;;;;;;;;;;4889699;29;20901;-70
2022/06/21 10:36:59;;;;;;;14.30;3.67;;;;;;;;;;4891867;29;20275;-69
2022/06/21 10:39:45;;;;;;;16.33;3.35;;;;;;;;;;4889895;29;20429;-69
2022/06/21 10:45:21;;;;;;;14.20;3.65;;;;;;;;;;4890238;29;20162;-69
2022/06/21 10:48:07;;;;;;;20.25;3.83;;;;;;;;;;4908879;28;20106;-71
2022/06/21 10:51:11;;;;;;;12.85;3.58;;;;;;;;;;4935286;28;20082;-70
2022/06/21 10:53:57;;;;;;;16.92;3.65;;;;;;;;;;4912680;29;20065;-70
2022/06/21 11:01:16;;;;;;;15.93;3.67;;;;;;;;;;4932497;28;20477;-69
2022/06/21 11:02:57;;;;;;;17.55;4.25;;;;;;;;;;4921009;29;20046;-68
2022/06/21 11:05:23;;;;;;;19.60;4.32;;;;;;;;;;4893685;29;20040;-69
2022/06/21 11:08:07;;;;;;;16.02;3.65;;;;;;;;;;4890389;29;20040;-70
2022/06/21 11:10:44;;;;;;;15.57;3.65;;;;;;;;;;4891457;29;20095;-71
2022/06/21 11:13:14;;;;;;;13.10;3.80;;;;;;;;;;4889876;29;20055;-70
2022/06/21 11:15:59;;;;;;;16.90;3.92;;;;;;;;;;4890542;29;20048;-69
2022/06/21 11:18:43;;;;;;;14.70;3.58;;;;;;;;;;4885997;29;20437;-71
2022/06/21 11:21:27;;;;;;;19.02;4.45;;;;;;;;;;4881213;29;20533;-69
2022/06/21 11:23:56;;;;;;;16.48;3.95;;;;;;;;;;4879940;29;20044;-69
2022/06/21 11:26:37;;;;;;;16.92;4.05;;;;;;;;;;4877147;29;20043;-72
2022/06/21 11:29:15;;;;;;;18.33;4.18;;;;;;;;;;4861758;29;20052;-69
2022/06/21 11:32:00;;;;;;;16.83;4.10;;;;;;;;;;4859921;29;20397;-69
2022/06/21 11:34:36;;;;;;;13.43;4.05;;;;;;;;;;4856542;29;20052;-81
2022/06/21 11:37:08;;;;;;;20.17;4.53;;;;;;;;;;4919338;28;20039;-75
2022/06/21 11:39:46;;;;;;;16.63;3.83;;;;;;;;;;4940282;28;20543;-73
2022/06/21 11:42:13;;;;;;;14.43;4.03;;;;;;;;;;4942072;28;20035;-74
2022/06/21 11:44:48;;;;;;;16.17;3.80;;;;;;;;;;4942562;28;20038;-74
2022/06/21 11:47:21;;;;;;;16.30;3.70;;;;;;;;;;4948217;28;20050;-74
2022/06/21 11:49:57;;;;;;;18.05;4.30;;;;;;;;;;4941090;28;20054;-74
2022/06/21 11:52:23;;;;;;;18.90;4.75;;;;;;;;;;4934557;28;20023;-74
2022/06/21 11:55:03;;;;;;;17.38;3.83;;;;;;;;;;4906350;28;20150;-73
2022/06/21 11:57:52;;;;;;;19.00;4.70;;;;;;;;;;4923921;28;20413;-74
2022/06/21 12:00:28;;;;;;;15.82;3.80;;;;;;;;;;4906748;28;20062;-73
2022/06/21 12:02:59;;;;;;;16.05;3.90;;;;;;;;;;4918795;28;20030;-74
2022/06/21 12:05:46;;;;;;;18.52;4.22;;;;;;;;;;4928192;28;20445;-74
2022/06/21 12:08:44;;;;;;;19.88;4.25;;;;;;;;;;4938353;28;20054;-74
2022/06/21 12:11:24;;;;;;;14.35;3.72;;;;;;;;;;4918874;28;20073;-74
2022/06/21 12:14:24;;;;;;;18.35;4.88;;;;;;;;;;4928876;28;20027;-73
2022/06/21 12:17:09;;;;;;;16.58;4.85;;;;;;;;;;4882083;29;20059;-74
2022/06/21 12:19:49;;;;;;;22.67;5.32;;;;;;;;;;4881097;29;20071;-74
2022/06/21 12:22:38;;;;;;;16.63;4.20;;;;;;;;;;4888916;29;20047;-76
2022/06/21 12:25:05;;;;;;;16.30;4.00;;;;;;;;;;4891177;29;20115;-76
2022/06/21 12:27:33;;;;;;;17.42;4.05;;;;;;;;;;4889162;29;20422;-76
2022/06/21 12:30:16;;;;;;;15.90;3.70;;;;;;;;;;4867092;29;20538;-76
2022/06/21 12:33:00;;;;;;;13.15;3.78;;;;;;;;;;4910907;28;20122;-76
2022/06/21 12:35:58;;;;;;;17.63;4.07;;;;;;;;;;4931400;28;20035;-76
2022/06/21 12:38:33;;;;;;;15.80;3.75;;;;;;;;;;4893418;29;20047;-75
2022/06/21 12:41:26;;;;;;;17.10;3.88;;;;;;;;;;4878482;29;20123;-75
2022/06/21 12:44:16;;;;;;;13.55;3.65;;;;;;;;;;4887753;29;20598;-74
2022/06/21 12:47:11;;;;;;;17.17;3.83;;;;;;;;;;4887695;29;20534;-74
2022/06/21 12:50:00;;;;;;;13.55;4.05;;;;;;;;;;4851041;29;20069;-73
2022/06/21 12:52:49;;;;;;;14.40;3.95;;;;;;;;;;4816831;29;20041;-72
2022/06/21 12:55:26;;;;;;;13.38;4.07;;;;;;;;;;4782942;29;20385;-72
2022/06/21 12:57:58;;;;;;;16.25;3.72;;;;;;;;;;4781148;29;20058;-73
2022/06/21 13:00:37;;;;;;;14.40;3.70;;;;;;;;;;4767811;29;20070;-74
2022/06/21 13:03:19;;;;;;;14.07;3.80;;;;;;;;;;4781162;29;20078;-77
2022/06/21 13:05:53;;;;;;;12.63;3.60;;;;;;;;;;4779518;29;20061;-68
2022/06/21 13:08:38;;;;;;;15.50;3.70;;;;;;;;;;4792683;29;20396;-75
2022/06/21 13:11:14;;;;;;;14.65;3.58;;;;;;;;;;4794213;29;20426;-73
2022/06/21 13:13:46;;;;;;;14.45;3.67;;;;;;;;;;4787900;29;20053;-73
2022/06/21 13:16:33;;;;;;;17.05;3.88;;;;;;;;;;4808462;29;20041;-68
2022/06/21 13:19:11;;;;;;;14.65;3.22;;;;;;;;;;4806007;29;20058;-68
2022/06/21 13:21:54;;;;;;;13.13;3.40;;;;;;;;;;4808925;29;20501;-73
2022/06/21 13:24:26;;;;;;;15.55;3.30;;;;;;;;;;4805803;29;20046;-74
2022/06/21 13:26:56;;;;;;;18.13;4.15;;;;;;;;;;4848950;29;20481;-75
2022/06/21 13:29:28;;;;;;;17.15;4.50;;;;;;;;;;4892361;29;20381;-77
2022/06/21 13:31:57;;;;;;;21.85;4.03;;;;;;;;;;4900550;28;20047;-78
2022/06/21 13:34:47;;;;;;;12.65;3.40;;;;;;;;;;4948379;28;20031;-73
2022/06/21 13:37:14;;;;;;;18.75;3.60;;;;;;;;;;4941011;28;20098;-76
2022/06/21 13:39:55;;;;;;;15.48;3.45;;;;;;;;;;4940666;28;20035;-78
2022/06/21 13:42:39;;;;;;;18.20;3.65;;;;;;;;;;4934200;28;20034;-78
2022/06/21 13:45:08;;;;;;;15.75;3.40;;;;;;;;;;4950978;28;20039;-73
2022/06/21 13:47:52;;;;;;;16.88;3.65;;;;;;;;;;4948670;28;20125;-73
2022/06/21 13:50:23;;;;;;;13.60;3.38;;;;;;;;;;4944021;28;20436;-73
2022/06/21 13:52:57;;;;;;;14.68;3.20;;;;;;;;;;4930461;28;20024;-74
2022/06/21 13:55:34;;;;;;;16.43;3.70;;;;;;;;;;4944609;28;20413;-74
2022/06/21 13:58:18;;;;;;;19.13;4.18;;;;;;;;;;4938706;28;20887;-73
2022/06/21 14:01:12;;;;;;;15.17;3.03;;;;;;;;;;4940134;28;20031;-74
2022/06/21 14:04:09;;;;;;;16.13;3.50;;;;;;;;;;4937839;28;20046;-75
2022/06/21 14:06:57;;;;;;;16.58;3.33;;;;;;;;;;4941745;28;20043;-74
2022/06/21 14:09:39;;;;;;;17.23;3.20;;;;;;;;;;4943288;28;20047;-74
2022/06/21 14:12:27;;;;;;;15.05;3.47;;;;;;;;;;4937520;28;20035;-75
2022/06/21 14:15:09;;;;;;;15.77;2.95;;;;;;;;;;4936508;28;20138;-74
2022/06/21 14:17:43;;;;;;;18.58;3.38;;;;;;;;;;4940204;28;20342;-74
2022/06/21 14:20:13;;;;;;;15.55;3.55;;;;;;;;;;4941272;28;20039;-75
2022/06/21 14:22:57;;;;;;;14.60;2.92;;;;;;;;;;4947109;28;20027;-74
2022/06/21 14:25:42;;;;;;;14.48;3.45;;;;;;;;;;4942852;28;20035;-76
2022/06/21 14:28:21;;;;;;;22.75;3.70;;;;;;;;;;4945116;28;20118;-77
2022/06/21 14:30:54;;;;;;;17.65;3.55;;;;;;;;;;4941402;28;20727;-77
2022/06/21 14:33:39;;;;;;;16.77;3.63;;;;;;;;;;4935211;28;20139;-76
2022/06/21 14:36:24;;;;;;;17.25;3.10;;;;;;;;;;4933504;28;20052;-76
2022/06/21 14:38:57;;;;;;;16.13;3.40;;;;;;;;;;4925154;28;20034;-76
2022/06/21 14:41:45;;;;;;;16.67;3.00;;;;;;;;;;4938824;28;20133;-76
2022/06/21 14:44:24;;;;;;;18.38;3.33;;;;;;;;;;4942212;28;20513;-77
2022/06/21 14:46:59;;;;;;;17.30;3.15;;;;;;;;;;4926095;28;20063;-77
2022/06/21 14:49:45;;;;;;;16.15;3.50;;;;;;;;;;4931365;28;20145;-77
2022/06/21 14:52:32;;;;;;;15.02;2.92;;;;;;;;;;4940870;28;20363;-77
2022/06/21 14:55:04;;;;;;;13.70;3.00;;;;;;;;;;4938194;28;20027;-78
2022/06/21 14:57:47;;;;;;;14.80;3.13;;;;;;;;;;4946038;28;20031;-76
2022/06/21 15:00:25;;;;;;;16.25;2.88;;;;;;;;;;4927827;28;20042;-77
2022/06/21 15:03:07;;;;;;;14.27;2.88;;;;;;;;;;4939328;28;20046;-77
2022/06/21 15:05:33;;;;;;;20.95;3.67;;;;;;;;;;4939466;28;20142;-77
2022/06/21 15:08:07;;;;;;;15.95;2.90;;;;;;;;;;4918660;28;20413;-77
2022/06/21 15:10:36;;;;;;;15.95;3.20;;;;;;;;;;4918830;28;20485;-77
2022/06/21 15:13:04;;;;;;;16.95;2.83;;;;;;;;;;4937737;28;20027;-77
2022/06/21 15:15:33;;;;;;;17.52;3.45;;;;;;;;;;4944356;28;20051;-77
2022/06/21 15:18:17;;;;;;;17.65;3.20;;;;;;;;;;4940911;28;20039;-77
2022/06/21 15:20:50;;;;;;;23.23;3.80;;;;;;;;;;4942998;28;20062;-77
2022/06/21 15:23:31;;;;;;;19.55;4.00;;;;;;;;;;4946139;28;20050;-77
2022/06/21 15:26:00;;;;;;;14.07;3.38;;;;;;;;;;4945578;28;20043;-77
2022/06/21 15:28:33;;;;;;;16.15;3.85;;;;;;;;;;4930470;28;20058;-77
2022/06/21 15:31:10;;;;;;;18.05;3.40;;;;;;;;;;4938325;28;20023;-78
2022/06/21 15:33:49;;;;;;;20.88;3.90;;;;;;;;;;4939414;28;20095;-78
2022/06/21 15:36:24;;;;;;;16.20;4.15;;;;;;;;;;4917379;28;20035;-78
2022/06/21 15:38:50;;;;;;;;;;;;;;;;;;4929396;28;20039;-77
2022/06/21 15:41:21;;;;;;;17.95;3.45;;;;;;;;;;4946450;28;19921;-77
2022/06/21 15:43:48;;;;;;;18.65;3.78;;;;;;;;;;4948271;28;20497;-79